Hobart, Wisconsin
Current Conditions -  °F | °C
As of 1:53 AM on Monday 22 Dec 2014 (Local Time) from KGRB Reporting Station
Haze Haze  
Wind Chill: 27°   Ceiling: 3700
Heat Index: 35°   Visibility: 6mi
Dew Point: 31°   Wind: 10mph
Humidity: 85%   Direction: 170°S
Pressure: 29.95"   Gusts: NA
Location:  44.5933°N, 88.1103°W
Report Text: KGRB 220753Z AUTO 17009KT 6SM BR OVC037 02/M01 A2995 RMK AO2 SLP151 T00171006
Loading
Personal Weather Stations






























Interactive Weather Map New forecast layout! Learn more

10-Day Weather Forecast

Advertisements
Track Severe Weather on mobile